sensor_id;sensor_type;location;lat;lon;timestamp;temperature;humidity
20446;DHT22;10382;49.140;9.234;2024-02-21T00:02:23;9.50;99.90
20446;DHT22;10382;49.140;9.234;2024-02-21T00:04:50;9.50;99.90
20446;DHT22;10382;49.140;9.234;2024-02-21T00:07:16;9.40;99.90
20446;DHT22;10382;49.140;9.234;2024-02-21T00:09:43;9.40;99.90
20446;DHT22;10382;49.140;9.234;2024-02-21T00:12:11;9.40;99.90
20446;DHT22;10382;49.140;9.234;2024-02-21T00:14:40;9.30;99.90
20446;DHT22;10382;49.140;9.234;2024-02-21T00:17:07;9.40;99.90
20446;DHT22;10382;49.140;9.234;2024-02-21T00:19:35;9.40;99.90
20446;DHT22;10382;49.140;9.234;2024-02-21T00:22:01;9.40;99.90
20446;DHT22;10382;49.140;9.234;2024-02-21T00:24:28;9.40;99.90
20446;DHT22;10382;49.140;9.234;2024-02-21T00:26:55;9.60;99.90
20446;DHT22;10382;49.140;9.234;2024-02-21T00:29:22;9.50;99.90
20446;DHT22;10382;49.140;9.234;2024-02-21T00:31:50;9.40;99.90
20446;DHT22;10382;49.140;9.234;2024-02-21T00:34:17;9.40;99.90
20446;DHT22;10382;49.140;9.234;2024-02-21T00:36:44;9.40;99.90
20446;DHT22;10382;49.140;9.234;2024-02-21T00:39:11;9.30;99.90
20446;DHT22;10382;49.140;9.234;2024-02-21T00:41:37;9.30;99.90
20446;DHT22;10382;49.140;9.234;2024-02-21T00:44:04;9.40;99.90
20446;DHT22;10382;49.140;9.234;2024-02-21T00:46:32;9.40;99.90
20446;DHT22;10382;49.140;9.234;2024-02-21T00:49:00;9.40;99.90
20446;DHT22;10382;49.140;9.234;2024-02-21T00:51:27;9.30;99.90
20446;DHT22;10382;49.140;9.234;2024-02-21T00:53:54;9.40;99.90
20446;DHT22;10382;49.140;9.234;2024-02-21T00:56:21;9.20;99.90
20446;DHT22;10382;49.140;9.234;2024-02-21T00:58:48;9.10;99.90
20446;DHT22;10382;49.140;9.234;2024-02-21T01:01:21;9.00;99.90
20446;DHT22;10382;49.140;9.234;2024-02-21T01:03:49;9.10;99.90
20446;DHT22;10382;49.140;9.234;2024-02-21T01:06:18;9.10;99.90
20446;DHT22;10382;49.140;9.234;2024-02-21T01:08:45;9.30;99.90
20446;DHT22;10382;49.140;9.234;2024-02-21T01:11:12;9.20;99.90
20446;DHT22;10382;49.140;9.234;2024-02-21T01:13:39;9.30;99.90
20446;DHT22;10382;49.140;9.234;2024-02-21T01:16:06;9.30;99.90
20446;DHT22;10382;49.140;9.234;2024-02-21T01:18:33;9.30;99.90
20446;DHT22;10382;49.140;9.234;2024-02-21T01:21:00;9.40;99.90
20446;DHT22;10382;49.140;9.234;2024-02-21T01:23:28;9.40;99.90
20446;DHT22;10382;49.140;9.234;2024-02-21T01:25:55;9.40;99.90
20446;DHT22;10382;49.140;9.234;2024-02-21T01:28:22;9.40;99.90
20446;DHT22;10382;49.140;9.234;2024-02-21T01:30:49;9.30;99.90
20446;DHT22;10382;49.140;9.234;2024-02-21T01:33:16;9.30;99.90
20446;DHT22;10382;49.140;9.234;2024-02-21T01:35:43;9.40;99.90
20446;DHT22;10382;49.140;9.234;2024-02-21T01:38:09;9.20;99.90
20446;DHT22;10382;49.140;9.234;2024-02-21T01:40:38;9.10;99.90
20446;DHT22;10382;49.140;9.234;2024-02-21T01:43:15;9.00;99.90
20446;DHT22;10382;49.140;9.234;2024-02-21T01:45:42;9.10;99.90
20446;DHT22;10382;49.140;9.234;2024-02-21T01:48:09;9.00;99.90
20446;DHT22;10382;49.140;9.234;2024-02-21T01:50:36;9.10;99.90
20446;DHT22;10382;49.140;9.234;2024-02-21T01:53:03;9.20;99.90
20446;DHT22;10382;49.140;9.234;2024-02-21T01:55:29;9.20;99.90
20446;DHT22;10382;49.140;9.234;2024-02-21T01:57:57;9.20;99.90
20446;DHT22;10382;49.140;9.234;2024-02-21T02:00:24;9.20;99.90
20446;DHT22;10382;49.140;9.234;2024-02-21T02:02:51;9.20;99.90
20446;DHT22;10382;49.140;9.234;2024-02-21T02:05:19;9.20;99.90
20446;DHT22;10382;49.140;9.234;2024-02-21T02:07:46;9.30;99.90
20446;DHT22;10382;49.140;9.234;2024-02-21T02:10:13;9.40;99.90
20446;DHT22;10382;49.140;9.234;2024-02-21T02:12:40;9.40;99.90
20446;DHT22;10382;49.140;9.234;2024-02-21T02:15:09;9.50;99.90
20446;DHT22;10382;49.140;9.234;2024-02-21T02:17:36;9.30;99.90
20446;DHT22;10382;49.140;9.234;2024-02-21T02:20:03;9.30;99.90
20446;DHT22;10382;49.140;9.234;2024-02-21T02:22:32;9.30;99.90
20446;DHT22;10382;49.140;9.234;2024-02-21T02:25:02;9.20;99.90
20446;DHT22;10382;49.140;9.234;2024-02-21T02:27:29;9.20;99.90
20446;DHT22;10382;49.140;9.234;2024-02-21T02:29:56;9.20;99.90
20446;DHT22;10382;49.140;9.234;2024-02-21T02:32:23;9.30;99.90
20446;DHT22;10382;49.140;9.234;2024-02-21T02:34:50;9.30;99.90
20446;DHT22;10382;49.140;9.234;2024-02-21T02:37:17;9.30;99.90
20446;DHT22;10382;49.140;9.234;2024-02-21T02:39:44;9.30;99.90
20446;DHT22;10382;49.140;9.234;2024-02-21T02:42:12;9.20;99.90
20446;DHT22;10382;49.140;9.234;2024-02-21T02:44:39;9.10;99.90
20446;DHT22;10382;49.140;9.234;2024-02-21T02:47:06;9.10;99.90
20446;DHT22;10382;49.140;9.234;2024-02-21T02:49:32;9.00;99.90
20446;DHT22;10382;49.140;9.234;2024-02-21T02:51:59;9.00;99.90
20446;DHT22;10382;49.140;9.234;2024-02-21T02:54:26;8.90;99.90
20446;DHT22;10382;49.140;9.234;2024-02-21T02:56:53;8.70;99.90
20446;DHT22;10382;49.140;9.234;2024-02-21T02:59:21;8.70;99.90
20446;DHT22;10382;49.140;9.234;2024-02-21T03:01:48;8.60;99.90
20446;DHT22;10382;49.140;9.234;2024-02-21T03:04:15;8.60;99.90
20446;DHT22;10382;49.140;9.234;2024-02-21T03:06:41;8.60;99.90
20446;DHT22;10382;49.140;9.234;2024-02-21T03:09:08;8.60;99.90
20446;DHT22;10382;49.140;9.234;2024-02-21T03:11:35;8.70;99.90
20446;DHT22;10382;49.140;9.234;2024-02-21T03:14:06;8.70;99.90
20446;DHT22;10382;49.140;9.234;2024-02-21T03:16:34;8.70;99.90
20446;DHT22;10382;49.140;9.234;2024-02-21T03:19:01;8.70;99.90
20446;DHT22;10382;49.140;9.234;2024-02-21T03:21:29;8.80;99.90
20446;DHT22;10382;49.140;9.234;2024-02-21T03:23:55;8.80;99.90
20446;DHT22;10382;49.140;9.234;2024-02-21T03:26:22;8.80;99.90
20446;DHT22;10382;49.140;9.234;2024-02-21T03:28:49;8.70;99.90
20446;DHT22;10382;49.140;9.234;2024-02-21T03:31:16;8.70;99.90
20446;DHT22;10382;49.140;9.234;2024-02-21T03:33:44;8.70;99.90
20446;DHT22;10382;49.140;9.234;2024-02-21T03:36:15;8.70;99.90
20446;DHT22;10382;49.140;9.234;2024-02-21T03:38:42;8.60;99.90
20446;DHT22;10382;49.140;9.234;2024-02-21T03:41:08;8.60;99.90
20446;DHT22;10382;49.140;9.234;2024-02-21T03:43:37;8.70;99.90
20446;DHT22;10382;49.140;9.234;2024-02-21T03:46:04;8.70;99.90
20446;DHT22;10382;49.140;9.234;2024-02-21T03:48:31;8.70;99.90
20446;DHT22;10382;49.140;9.234;2024-02-21T03:50:59;8.60;99.90
20446;DHT22;10382;49.140;9.234;2024-02-21T03:53:26;8.70;99.90
20446;DHT22;10382;49.140;9.234;2024-02-21T03:55:53;8.70;99.90
20446;DHT22;10382;49.140;9.234;2024-02-21T03:58:20;8.80;99.90
20446;DHT22;10382;49.140;9.234;2024-02-21T04:00:47;8.90;99.90
20446;DHT22;10382;49.140;9.234;2024-02-21T04:03:14;8.90;99.90
20446;DHT22;10382;49.140;9.234;2024-02-21T04:05:41;8.90;99.90
20446;DHT22;10382;49.140;9.234;2024-02-21T04:08:09;8.80;99.90
20446;DHT22;10382;49.140;9.234;2024-02-21T04:10:36;8.70;99.90
20446;DHT22;10382;49.140;9.234;2024-02-21T04:13:04;8.80;99.90
20446;DHT22;10382;49.140;9.234;2024-02-21T04:15:31;8.80;99.90
20446;DHT22;10382;49.140;9.234;2024-02-21T04:17:58;8.80;99.90
20446;DHT22;10382;49.140;9.234;2024-02-21T04:20:25;8.80;99.90
20446;DHT22;10382;49.140;9.234;2024-02-21T04:22:52;8.90;99.90
20446;DHT22;10382;49.140;9.234;2024-02-21T04:25:20;8.90;99.90
20446;DHT22;10382;49.140;9.234;2024-02-21T04:27:47;8.90;99.90
20446;DHT22;10382;49.140;9.234;2024-02-21T04:30:14;8.90;99.90
20446;DHT22;10382;49.140;9.234;2024-02-21T04:32:41;9.00;99.90
20446;DHT22;10382;49.140;9.234;2024-02-21T04:35:09;9.00;99.90
20446;DHT22;10382;49.140;9.234;2024-02-21T04:37:35;9.10;99.90
20446;DHT22;10382;49.140;9.234;2024-02-21T04:40:03;9.20;99.90
20446;DHT22;10382;49.140;9.234;2024-02-21T04:42:31;9.10;99.90
20446;DHT22;10382;49.140;9.234;2024-02-21T04:44:58;9.20;99.90
20446;DHT22;10382;49.140;9.234;2024-02-21T04:47:25;9.30;99.90
20446;DHT22;10382;49.140;9.234;2024-02-21T04:49:52;9.40;99.90
20446;DHT22;10382;49.140;9.234;2024-02-21T04:52:19;9.50;99.90
20446;DHT22;10382;49.140;9.234;2024-02-21T04:54:45;9.40;99.90
20446;DHT22;10382;49.140;9.234;2024-02-21T04:57:12;9.40;99.90
20446;DHT22;10382;49.140;9.234;2024-02-21T04:59:43;9.20;99.90
20446;DHT22;10382;49.140;9.234;2024-02-21T05:02:11;9.00;99.90
20446;DHT22;10382;49.140;9.234;2024-02-21T05:04:38;8.90;99.90
20446;DHT22;10382;49.140;9.234;2024-02-21T05:07:07;8.90;99.90
20446;DHT22;10382;49.140;9.234;2024-02-21T05:09:34;8.80;99.90
20446;DHT22;10382;49.140;9.234;2024-02-21T05:12:00;8.70;99.90
20446;DHT22;10382;49.140;9.234;2024-02-21T05:14:27;8.70;99.90
20446;DHT22;10382;49.140;9.234;2024-02-21T05:16:56;8.70;99.90
20446;DHT22;10382;49.140;9.234;2024-02-21T05:19:22;8.70;99.90
20446;DHT22;10382;49.140;9.234;2024-02-21T05:21:49;8.60;99.90
20446;DHT22;10382;49.140;9.234;2024-02-21T05:24:16;8.70;99.90
20446;DHT22;10382;49.140;9.234;2024-02-21T05:26:43;8.80;99.90
20446;DHT22;10382;49.140;9.234;2024-02-21T05:29:10;8.80;99.90
20446;DHT22;10382;49.140;9.234;2024-02-21T05:31:56;8.80;99.90
20446;DHT22;10382;49.140;9.234;2024-02-21T05:34:23;8.80;99.90
20446;DHT22;10382;49.140;9.234;2024-02-21T05:36:50;8.80;99.90
20446;DHT22;10382;49.140;9.234;2024-02-21T05:39:18;8.60;99.90
20446;DHT22;10382;49.140;9.234;2024-02-21T05:41:45;8.50;99.90
20446;DHT22;10382;49.140;9.234;2024-02-21T05:44:12;8.50;99.90
20446;DHT22;10382;49.140;9.234;2024-02-21T05:46:39;8.40;99.90
20446;DHT22;10382;49.140;9.234;2024-02-21T05:49:07;8.30;99.90
20446;DHT22;10382;49.140;9.234;2024-02-21T05:51:34;8.30;99.90
20446;DHT22;10382;49.140;9.234;2024-02-21T05:54:01;8.30;99.90
20446;DHT22;10382;49.140;9.234;2024-02-21T05:56:28;8.40;99.90
20446;DHT22;10382;49.140;9.234;2024-02-21T05:58:55;8.50;99.90
20446;DHT22;10382;49.140;9.234;2024-02-21T06:01:22;8.50;99.90
20446;DHT22;10382;49.140;9.234;2024-02-21T06:03:49;8.60;99.90
20446;DHT22;10382;49.140;9.234;2024-02-21T06:06:17;8.60;99.90
20446;DHT22;10382;49.140;9.234;2024-02-21T06:08:44;8.60;99.90
20446;DHT22;10382;49.140;9.234;2024-02-21T06:11:11;8.50;99.90
20446;DHT22;10382;49.140;9.234;2024-02-21T06:13:38;8.50;99.90
20446;DHT22;10382;49.140;9.234;2024-02-21T06:16:06;8.40;99.90
20446;DHT22;10382;49.140;9.234;2024-02-21T06:18:35;8.30;99.90
20446;DHT22;10382;49.140;9.234;2024-02-21T06:21:02;8.20;99.90
20446;DHT22;10382;49.140;9.234;2024-02-21T06:23:31;8.10;99.90
20446;DHT22;10382;49.140;9.234;2024-02-21T06:25:58;8.20;99.90
20446;DHT22;10382;49.140;9.234;2024-02-21T06:28:24;8.20;99.90
20446;DHT22;10382;49.140;9.234;2024-02-21T06:30:51;8.30;99.90
20446;DHT22;10382;49.140;9.234;2024-02-21T06:33:18;8.30;99.90
20446;DHT22;10382;49.140;9.234;2024-02-21T06:35:48;8.30;99.90
20446;DHT22;10382;49.140;9.234;2024-02-21T06:38:17;8.30;99.90
20446;DHT22;10382;49.140;9.234;2024-02-21T06:40:46;8.40;99.90
20446;DHT22;10382;49.140;9.234;2024-02-21T06:43:17;8.40;99.90
20446;DHT22;10382;49.140;9.234;2024-02-21T06:45:44;8.50;99.90
20446;DHT22;10382;49.140;9.234;2024-02-21T06:48:13;8.60;99.90
20446;DHT22;10382;49.140;9.234;2024-02-21T06:50:40;8.60;99.90
20446;DHT22;10382;49.140;9.234;2024-02-21T06:53:07;8.70;99.90
20446;DHT22;10382;49.140;9.234;2024-02-21T06:55:33;8.70;99.90
20446;DHT22;10382;49.140;9.234;2024-02-21T06:58:02;8.80;99.90
20446;DHT22;10382;49.140;9.234;2024-02-21T07:00:29;8.90;99.90
20446;DHT22;10382;49.140;9.234;2024-02-21T07:02:56;8.80;99.90
20446;DHT22;10382;49.140;9.234;2024-02-21T07:05:23;9.00;99.90
20446;DHT22;10382;49.140;9.234;2024-02-21T07:07:50;9.20;99.90
20446;DHT22;10382;49.140;9.234;2024-02-21T07:10:17;9.30;99.90
20446;DHT22;10382;49.140;9.234;2024-02-21T07:12:44;9.40;99.90
20446;DHT22;10382;49.140;9.234;2024-02-21T07:15:12;9.60;99.90
20446;DHT22;10382;49.140;9.234;2024-02-21T07:17:39;9.80;99.90
20446;DHT22;10382;49.140;9.234;2024-02-21T07:20:07;10.00;99.90
20446;DHT22;10382;49.140;9.234;2024-02-21T07:22:33;10.10;99.90
20446;DHT22;10382;49.140;9.234;2024-02-21T07:25:00;10.20;99.90
20446;DHT22;10382;49.140;9.234;2024-02-21T07:27:26;10.20;99.90
20446;DHT22;10382;49.140;9.234;2024-02-21T07:29:56;10.10;99.90
20446;DHT22;10382;49.140;9.234;2024-02-21T07:32:24;10.20;99.90
20446;DHT22;10382;49.140;9.234;2024-02-21T07:34:51;10.30;99.90
20446;DHT22;10382;49.140;9.234;2024-02-21T07:37:18;10.30;99.90
20446;DHT22;10382;49.140;9.234;2024-02-21T07:39:45;10.50;99.90
20446;DHT22;10382;49.140;9.234;2024-02-21T07:42:11;10.60;99.90
20446;DHT22;10382;49.140;9.234;2024-02-21T07:44:38;11.00;99.90
20446;DHT22;10382;49.140;9.234;2024-02-21T07:47:05;11.20;99.90
20446;DHT22;10382;49.140;9.234;2024-02-21T07:49:40;10.80;99.90
20446;DHT22;10382;49.140;9.234;2024-02-21T07:52:07;10.90;99.90
20446;DHT22;10382;49.140;9.234;2024-02-21T07:54:34;11.10;99.90
20446;DHT22;10382;49.140;9.234;2024-02-21T07:57:01;11.30;99.90
20446;DHT22;10382;49.140;9.234;2024-02-21T07:59:29;11.80;99.90
20446;DHT22;10382;49.140;9.234;2024-02-21T08:01:56;12.10;99.90
20446;DHT22;10382;49.140;9.234;2024-02-21T08:04:23;12.10;99.90
20446;DHT22;10382;49.140;9.234;2024-02-21T08:06:53;11.90;99.90
20446;DHT22;10382;49.140;9.234;2024-02-21T08:09:21;11.90;99.90
20446;DHT22;10382;49.140;9.234;2024-02-21T08:11:49;11.90;99.90
20446;DHT22;10382;49.140;9.234;2024-02-21T08:14:17;11.90;99.90
20446;DHT22;10382;49.140;9.234;2024-02-21T08:16:44;12.20;99.90
20446;DHT22;10382;49.140;9.234;2024-02-21T08:19:10;12.80;99.90
20446;DHT22;10382;49.140;9.234;2024-02-21T08:21:37;12.90;99.90
20446;DHT22;10382;49.140;9.234;2024-02-21T08:24:06;12.90;99.90
20446;DHT22;10382;49.140;9.234;2024-02-21T08:26:33;13.10;99.90
20446;DHT22;10382;49.140;9.234;2024-02-21T08:29:01;12.90;99.90
20446;DHT22;10382;49.140;9.234;2024-02-21T08:31:28;12.80;99.90
20446;DHT22;10382;49.140;9.234;2024-02-21T08:33:57;12.90;99.90
20446;DHT22;10382;49.140;9.234;2024-02-21T08:36:28;12.90;99.90
20446;DHT22;10382;49.140;9.234;2024-02-21T08:38:55;12.90;99.90
20446;DHT22;10382;49.140;9.234;2024-02-21T08:41:23;12.50;99.90
20446;DHT22;10382;49.140;9.234;2024-02-21T08:43:50;12.30;99.90
20446;DHT22;10382;49.140;9.234;2024-02-21T08:46:17;12.20;99.90
20446;DHT22;10382;49.140;9.234;2024-02-21T08:48:44;12.10;99.90
20446;DHT22;10382;49.140;9.234;2024-02-21T08:51:12;11.80;99.90
20446;DHT22;10382;49.140;9.234;2024-02-21T08:53:39;11.60;99.90
20446;DHT22;10382;49.140;9.234;2024-02-21T08:56:07;11.80;99.90
20446;DHT22;10382;49.140;9.234;2024-02-21T08:58:35;11.90;99.90
20446;DHT22;10382;49.140;9.234;2024-02-21T09:01:03;11.80;99.90
20446;DHT22;10382;49.140;9.234;2024-02-21T09:03:31;11.70;99.90
20446;DHT22;10382;49.140;9.234;2024-02-21T09:05:58;11.40;99.90
20446;DHT22;10382;49.140;9.234;2024-02-21T09:08:25;11.20;99.90
20446;DHT22;10382;49.140;9.234;2024-02-21T09:10:52;11.10;99.90
20446;DHT22;10382;49.140;9.234;2024-02-21T09:13:19;11.20;99.90
20446;DHT22;10382;49.140;9.234;2024-02-21T09:15:48;11.20;99.90
20446;DHT22;10382;49.140;9.234;2024-02-21T09:18:14;11.30;99.90
20446;DHT22;10382;49.140;9.234;2024-02-21T09:20:41;11.30;99.90
20446;DHT22;10382;49.140;9.234;2024-02-21T09:23:08;11.50;99.90
20446;DHT22;10382;49.140;9.234;2024-02-21T09:25:35;11.60;99.90
20446;DHT22;10382;49.140;9.234;2024-02-21T09:28:03;11.70;99.90
20446;DHT22;10382;49.140;9.234;2024-02-21T09:30:32;11.90;99.90
20446;DHT22;10382;49.140;9.234;2024-02-21T09:33:00;12.20;99.90
20446;DHT22;10382;49.140;9.234;2024-02-21T09:35:28;12.50;99.90
20446;DHT22;10382;49.140;9.234;2024-02-21T09:37:54;12.90;99.90
20446;DHT22;10382;49.140;9.234;2024-02-21T09:40:21;13.10;99.90
20446;DHT22;10382;49.140;9.234;2024-02-21T09:42:48;13.20;99.90
20446;DHT22;10382;49.140;9.234;2024-02-21T09:45:21;13.60;99.90
20446;DHT22;10382;49.140;9.234;2024-02-21T09:47:57;14.00;99.90
20446;DHT22;10382;49.140;9.234;2024-02-21T09:50:29;14.00;99.90
20446;DHT22;10382;49.140;9.234;2024-02-21T09:52:58;14.10;99.90
20446;DHT22;10382;49.140;9.234;2024-02-21T09:55:27;14.00;99.90
20446;DHT22;10382;49.140;9.234;2024-02-21T09:57:58;14.40;99.90
20446;DHT22;10382;49.140;9.234;2024-02-21T10:00:26;14.90;99.90
20446;DHT22;10382;49.140;9.234;2024-02-21T10:02:53;14.70;99.90
20446;DHT22;10382;49.140;9.234;2024-02-21T10:05:21;15.00;99.90
20446;DHT22;10382;49.140;9.234;2024-02-21T10:07:51;15.00;99.90
20446;DHT22;10382;49.140;9.234;2024-02-21T10:10:18;14.70;99.90
20446;DHT22;10382;49.140;9.234;2024-02-21T10:12:50;14.60;99.90
20446;DHT22;10382;49.140;9.234;2024-02-21T10:15:21;14.50;99.90
20446;DHT22;10382;49.140;9.234;2024-02-21T10:17:49;15.10;99.90
20446;DHT22;10382;49.140;9.234;2024-02-21T10:20:16;15.70;99.90
20446;DHT22;10382;49.140;9.234;2024-02-21T10:22:43;16.40;99.90
20446;DHT22;10382;49.140;9.234;2024-02-21T10:25:12;17.00;99.90
20446;DHT22;10382;49.140;9.234;2024-02-21T10:27:39;17.60;99.40
20446;DHT22;10382;49.140;9.234;2024-02-21T10:30:12;17.40;97.80
20446;DHT22;10382;49.140;9.234;2024-02-21T10:32:49;17.00;98.30
20446;DHT22;10382;49.140;9.234;2024-02-21T10:35:25;16.80;98.20
20446;DHT22;10382;49.140;9.234;2024-02-21T10:37:53;17.00;98.30
20446;DHT22;10382;49.140;9.234;2024-02-21T10:40:26;17.20;96.10
20446;DHT22;10382;49.140;9.234;2024-02-21T10:42:57;17.10;95.60
20446;DHT22;10382;49.140;9.234;2024-02-21T10:45:29;16.90;95.20
20446;DHT22;10382;49.140;9.234;2024-02-21T10:48:05;16.80;95.60
20446;DHT22;10382;49.140;9.234;2024-02-21T10:50:36;16.40;95.90
20446;DHT22;10382;49.140;9.234;2024-02-21T10:53:12;16.40;96.40
20446;DHT22;10382;49.140;9.234;2024-02-21T10:55:54;16.30;95.90
20446;DHT22;10382;49.140;9.234;2024-02-21T10:58:22;16.20;96.40
20446;DHT22;10382;49.140;9.234;2024-02-21T11:00:51;16.50;95.50
20446;DHT22;10382;49.140;9.234;2024-02-21T11:03:19;16.70;94.70
20446;DHT22;10382;49.140;9.234;2024-02-21T11:05:46;16.40;94.60
20446;DHT22;10382;49.140;9.234;2024-02-21T11:08:14;16.30;95.60
20446;DHT22;10382;49.140;9.234;2024-02-21T11:10:45;16.40;95.30
20446;DHT22;10382;49.140;9.234;2024-02-21T11:13:12;16.60;95.20
20446;DHT22;10382;49.140;9.234;2024-02-21T11:15:40;16.70;95.30
20446;DHT22;10382;49.140;9.234;2024-02-21T11:18:06;17.00;95.30
20446;DHT22;10382;49.140;9.234;2024-02-21T11:20:34;16.50;92.30
20446;DHT22;10382;49.140;9.234;2024-02-21T11:23:01;15.80;93.50
20446;DHT22;10382;49.140;9.234;2024-02-21T11:25:28;15.40;95.50
20446;DHT22;10382;49.140;9.234;2024-02-21T11:28:01;15.30;95.10
20446;DHT22;10382;49.140;9.234;2024-02-21T11:30:30;15.40;96.10
20446;DHT22;10382;49.140;9.234;2024-02-21T11:33:02;15.60;94.90
20446;DHT22;10382;49.140;9.234;2024-02-21T11:35:32;15.90;95.00
20446;DHT22;10382;49.140;9.234;2024-02-21T11:38:09;16.30;94.80
20446;DHT22;10382;49.140;9.234;2024-02-21T11:40:40;16.80;93.90
20446;DHT22;10382;49.140;9.234;2024-02-21T11:43:08;17.10;93.20
20446;DHT22;10382;49.140;9.234;2024-02-21T11:45:35;17.40;91.70
20446;DHT22;10382;49.140;9.234;2024-02-21T11:48:05;17.40;90.30
20446;DHT22;10382;49.140;9.234;2024-02-21T11:50:32;17.40;90.20
20446;DHT22;10382;49.140;9.234;2024-02-21T11:52:58;17.70;90.20
20446;DHT22;10382;49.140;9.234;2024-02-21T11:55:25;17.90;89.10
20446;DHT22;10382;49.140;9.234;2024-02-21T11:57:52;18.30;87.50
20446;DHT22;10382;49.140;9.234;2024-02-21T12:00:21;18.30;82.00
20446;DHT22;10382;49.140;9.234;2024-02-21T12:02:50;18.20;84.50
20446;DHT22;10382;49.140;9.234;2024-02-21T12:05:19;18.10;84.20
20446;DHT22;10382;49.140;9.234;2024-02-21T12:07:46;18.00;82.90
20446;DHT22;10382;49.140;9.234;2024-02-21T12:10:13;17.70;84.10
20446;DHT22;10382;49.140;9.234;2024-02-21T12:12:40;17.30;83.10
20446;DHT22;10382;49.140;9.234;2024-02-21T12:15:08;16.90;84.70
20446;DHT22;10382;49.140;9.234;2024-02-21T12:17:36;16.40;85.80
20446;DHT22;10382;49.140;9.234;2024-02-21T12:20:04;16.20;89.00
20446;DHT22;10382;49.140;9.234;2024-02-21T12:22:35;16.00;90.60
20446;DHT22;10382;49.140;9.234;2024-02-21T12:25:03;15.70;91.00
20446;DHT22;10382;49.140;9.234;2024-02-21T12:27:31;15.90;92.20
20446;DHT22;10382;49.140;9.234;2024-02-21T12:29:58;15.60;91.00
20446;DHT22;10382;49.140;9.234;2024-02-21T12:32:24;15.70;91.90
20446;DHT22;10382;49.140;9.234;2024-02-21T12:34:52;15.70;91.60
20446;DHT22;10382;49.140;9.234;2024-02-21T12:37:21;15.60;90.50
20446;DHT22;10382;49.140;9.234;2024-02-21T12:39:48;15.80;91.40
20446;DHT22;10382;49.140;9.234;2024-02-21T12:42:15;16.10;91.50
20446;DHT22;10382;49.140;9.234;2024-02-21T12:44:42;16.40;91.60
20446;DHT22;10382;49.140;9.234;2024-02-21T12:47:09;16.70;91.00
20446;DHT22;10382;49.140;9.234;2024-02-21T12:49:36;16.70;90.50
20446;DHT22;10382;49.140;9.234;2024-02-21T12:52:05;16.80;90.40
20446;DHT22;10382;49.140;9.234;2024-02-21T12:54:32;16.70;90.00
20446;DHT22;10382;49.140;9.234;2024-02-21T12:56:59;16.50;90.30
20446;DHT22;10382;49.140;9.234;2024-02-21T12:59:28;16.20;90.60
20446;DHT22;10382;49.140;9.234;2024-02-21T13:01:55;16.20;90.80
20446;DHT22;10382;49.140;9.234;2024-02-21T13:04:22;15.90;90.60
20446;DHT22;10382;49.140;9.234;2024-02-21T13:06:49;15.80;91.90
20446;DHT22;10382;49.140;9.234;2024-02-21T13:09:17;15.90;91.60
20446;DHT22;10382;49.140;9.234;2024-02-21T13:11:45;16.20;92.00
20446;DHT22;10382;49.140;9.234;2024-02-21T13:14:12;16.50;91.20
20446;DHT22;10382;49.140;9.234;2024-02-21T13:16:39;16.70;89.50
20446;DHT22;10382;49.140;9.234;2024-02-21T13:19:06;17.00;90.50
20446;DHT22;10382;49.140;9.234;2024-02-21T13:21:33;17.00;88.40
20446;DHT22;10382;49.140;9.234;2024-02-21T13:24:00;16.70;88.40
20446;DHT22;10382;49.140;9.234;2024-02-21T13:26:29;16.60;88.10
20446;DHT22;10382;49.140;9.234;2024-02-21T13:28:55;16.10;89.70
20446;DHT22;10382;49.140;9.234;2024-02-21T13:31:22;16.10;91.00
20446;DHT22;10382;49.140;9.234;2024-02-21T13:33:50;16.20;90.70
20446;DHT22;10382;49.140;9.234;2024-02-21T13:36:17;16.10;89.30
20446;DHT22;10382;49.140;9.234;2024-02-21T13:38:44;15.80;90.00
20446;DHT22;10382;49.140;9.234;2024-02-21T13:41:12;15.90;91.10
20446;DHT22;10382;49.140;9.234;2024-02-21T13:43:40;16.10;91.00
20446;DHT22;10382;49.140;9.234;2024-02-21T13:46:07;16.40;91.50
20446;DHT22;10382;49.140;9.234;2024-02-21T13:48:36;16.50;89.20
20446;DHT22;10382;49.140;9.234;2024-02-21T13:51:04;16.60;88.80
20446;DHT22;10382;49.140;9.234;2024-02-21T13:53:30;16.30;87.40
20446;DHT22;10382;49.140;9.234;2024-02-21T13:55:57;16.20;88.60
20446;DHT22;10382;49.140;9.234;2024-02-21T13:58:24;16.10;89.30
20446;DHT22;10382;49.140;9.234;2024-02-21T14:00:53;15.90;88.30
20446;DHT22;10382;49.140;9.234;2024-02-21T14:03:19;15.80;89.60
20446;DHT22;10382;49.140;9.234;2024-02-21T14:05:46;15.70;90.20
20446;DHT22;10382;49.140;9.234;2024-02-21T14:08:14;15.80;90.80
20446;DHT22;10382;49.140;9.234;2024-02-21T14:10:41;15.60;88.50
20446;DHT22;10382;49.140;9.234;2024-02-21T14:13:08;15.30;90.00
20446;DHT22;10382;49.140;9.234;2024-02-21T14:15:35;15.20;90.30
20446;DHT22;10382;49.140;9.234;2024-02-21T14:18:04;15.00;90.00
20446;DHT22;10382;49.140;9.234;2024-02-21T14:20:34;14.80;90.50
20446;DHT22;10382;49.140;9.234;2024-02-21T14:23:01;14.70;90.90
20446;DHT22;10382;49.140;9.234;2024-02-21T14:25:30;14.60;91.60
20446;DHT22;10382;49.140;9.234;2024-02-21T14:27:56;14.60;91.90
20446;DHT22;10382;49.140;9.234;2024-02-21T14:30:23;14.50;91.40
20446;DHT22;10382;49.140;9.234;2024-02-21T14:32:51;14.50;91.50
20446;DHT22;10382;49.140;9.234;2024-02-21T14:35:20;14.30;92.00
20446;DHT22;10382;49.140;9.234;2024-02-21T14:37:47;14.20;92.80
20446;DHT22;10382;49.140;9.234;2024-02-21T14:40:15;14.20;92.40
20446;DHT22;10382;49.140;9.234;2024-02-21T14:42:41;14.10;93.00
20446;DHT22;10382;49.140;9.234;2024-02-21T14:45:09;14.20;93.50
20446;DHT22;10382;49.140;9.234;2024-02-21T14:47:36;14.50;92.80
20446;DHT22;10382;49.140;9.234;2024-02-21T14:50:03;14.60;93.20
20446;DHT22;10382;49.140;9.234;2024-02-21T14:52:32;14.70;92.90
20446;DHT22;10382;49.140;9.234;2024-02-21T14:55:00;14.60;92.30
20446;DHT22;10382;49.140;9.234;2024-02-21T14:57:28;14.50;93.10
20446;DHT22;10382;49.140;9.234;2024-02-21T14:59:55;14.50;92.90
20446;DHT22;10382;49.140;9.234;2024-02-21T15:02:24;14.50;93.00
20446;DHT22;10382;49.140;9.234;2024-02-21T15:04:52;14.70;93.50
20446;DHT22;10382;49.140;9.234;2024-02-21T15:07:19;14.80;92.70
20446;DHT22;10382;49.140;9.234;2024-02-21T15:09:50;14.80;92.80
20446;DHT22;10382;49.140;9.234;2024-02-21T15:12:17;14.80;93.00
20446;DHT22;10382;49.140;9.234;2024-02-21T15:14:44;14.80;93.60
20446;DHT22;10382;49.140;9.234;2024-02-21T15:17:11;14.90;93.70
20446;DHT22;10382;49.140;9.234;2024-02-21T15:19:38;14.90;93.20
20446;DHT22;10382;49.140;9.234;2024-02-21T15:22:09;14.60;93.60
20446;DHT22;10382;49.140;9.234;2024-02-21T15:24:37;14.50;94.00
20446;DHT22;10382;49.140;9.234;2024-02-21T15:27:06;14.60;94.40
20446;DHT22;10382;49.140;9.234;2024-02-21T15:29:34;14.70;94.20
20446;DHT22;10382;49.140;9.234;2024-02-21T15:32:01;14.50;94.20
20446;DHT22;10382;49.140;9.234;2024-02-21T15:34:28;14.30;95.20
20446;DHT22;10382;49.140;9.234;2024-02-21T15:36:55;14.30;95.10
20446;DHT22;10382;49.140;9.234;2024-02-21T15:39:21;14.10;95.70
20446;DHT22;10382;49.140;9.234;2024-02-21T15:41:48;14.10;96.30